Time;durP1;ratioP1;P1;durP2;ratioP2;P2;SDS_P1;SDS_P2;PMS_P1;PMS_P2;Temp;Humidity;BMP_temperature;BMP_pressure;BME280_temperature;BME280_humidity;BME280_pressure;Samples;Min_cycle;Max_cycle;Signal;HPM_P1;HPM_P2
2021/05/31 00:01:54;;;;;;;9.20;8.40;;;12.60;99.90;;;;;;5032495;28;20226;-65
2021/05/31 00:04:20;;;;;;;9.77;8.97;;;12.60;99.90;;;;;;5051470;28;20216;-65
2021/05/31 00:06:58;;;;;;;9.00;8.27;;;12.50;99.90;;;;;;5051316;28;20185;-65
2021/05/31 00:09:24;;;;;;;9.20;8.50;;;12.40;99.90;;;;;;5011901;28;20182;-65
2021/05/31 00:11:50;;;;;;;9.53;8.73;;;12.30;99.90;;;;;;5011693;28;20259;-65
2021/05/31 00:14:16;;;;;;;9.53;8.83;;;12.40;99.90;;;;;;5050679;28;20204;-64
2021/05/31 00:16:42;;;;;;;10.20;9.20;;;12.40;99.90;;;;;;5051636;28;20175;-64
2021/05/31 00:19:09;;;;;;;9.93;9.17;;;12.50;99.90;;;;;;5032950;28;20183;-65
2021/05/31 00:21:36;;;;;;;9.90;8.93;;;12.30;99.90;;;;;;5031157;28;20552;-64
2021/05/31 00:24:03;;;;;;;9.37;8.67;;;12.20;99.90;;;;;;5047677;28;20350;-64
2021/05/31 00:26:29;;;;;;;9.87;9.00;;;12.10;99.90;;;;;;5050056;28;20204;-64
2021/05/31 00:28:54;;;;;;;9.80;9.10;;;12.10;99.90;;;;;;5035650;28;20266;-65
2021/05/31 00:31:20;;;;;;;10.40;9.50;;;12.00;99.90;;;;;;5031251;28;20581;-65
2021/05/31 00:33:46;;;;;;;10.33;9.60;;;12.00;99.90;;;;;;5044632;28;20209;-65
2021/05/31 00:36:12;;;;;;;10.87;9.97;;;12.00;99.90;;;;;;5051152;28;20206;-65
2021/05/31 00:38:40;;;;;;;10.73;9.93;;;12.00;99.90;;;;;;5039488;28;20206;-64
2021/05/31 00:41:06;;;;;;;9.67;8.97;;;12.10;99.90;;;;;;5034203;28;20182;-64
2021/05/31 00:43:34;;;;;;;9.37;8.60;;;12.20;99.90;;;;;;5051407;28;20586;-64
2021/05/31 00:46:09;;;;;;;10.03;9.20;;;12.10;99.90;;;;;;5047842;28;20281;-64
2021/05/31 00:48:35;;;;;;;9.67;8.80;;;12.00;99.90;;;;;;5031322;28;20180;-63
2021/05/31 00:51:05;;;;;;;10.03;9.33;;;12.00;99.90;;;;;;5032415;28;20262;-64
2021/05/31 00:53:31;;;;;;;10.13;9.17;;;12.00;99.90;;;;;;5051012;28;20270;-64
2021/05/31 00:55:57;;;;;;;9.13;8.47;;;12.00;99.90;;;;;;5050247;28;20210;-64
2021/05/31 00:58:27;;;;;;;10.90;9.90;;;11.80;99.90;;;;;;5031226;28;20182;-65
2021/05/31 01:00:53;;;;;;;10.23;9.43;;;11.80;99.90;;;;;;5033216;28;20588;-64
2021/05/31 01:03:18;;;;;;;9.93;9.23;;;11.70;99.90;;;;;;5035029;28;20203;-65
2021/05/31 01:05:46;;;;;;;10.23;9.43;;;11.70;99.90;;;;;;5034905;28;20184;-64
2021/05/31 01:08:16;;;;;;;10.13;9.23;;;11.80;99.90;;;;;;5051401;28;20193;-65
2021/05/31 01:10:55;;;;;;;10.77;9.77;;;11.80;99.90;;;;;;5054406;28;20171;-65
2021/05/31 01:13:21;;;;;;;11.20;10.20;;;11.70;99.90;;;;;;5035570;28;20207;-64
2021/05/31 01:15:50;;;;;;;10.30;9.50;;;11.70;99.90;;;;;;5034623;28;20722;-64
2021/05/31 01:18:24;;;;;;;11.03;10.00;;;11.70;99.90;;;;;;5052032;28;20174;-65
2021/05/31 01:21:09;;;;;;;10.63;9.73;;;11.50;99.90;;;;;;5054160;28;20178;-65
2021/05/31 01:23:38;;;;;;;10.93;10.00;;;11.40;99.90;;;;;;5034734;28;20211;-64
2021/05/31 01:26:19;;;;;;;10.40;9.63;;;11.40;99.90;;;;;;5034544;28;20621;-64
2021/05/31 01:29:08;;;;;;;11.20;10.23;;;11.30;99.90;;;;;;5014598;28;20191;-65
2021/05/31 01:31:43;;;;;;;12.00;10.80;;;11.30;99.90;;;;;;5018342;28;20277;-64
2021/05/31 01:34:11;;;;;;;10.73;10.00;;;11.40;99.90;;;;;;5054259;28;20277;-65
2021/05/31 01:36:43;;;;;;;10.60;9.80;;;11.50;99.90;;;;;;5043135;28;20234;-64
2021/05/31 01:39:12;;;;;;;11.33;10.43;;;11.50;99.90;;;;;;5034152;28;20590;-64
2021/05/31 01:41:38;;;;;;;11.67;10.67;;;11.50;99.90;;;;;;5043979;28;20233;-64
2021/05/31 01:44:04;;;;;;;16.33;10.07;;;11.40;99.90;;;;;;5052677;28;20191;-65
2021/05/31 01:46:30;;;;;;;10.90;9.97;;;11.40;99.90;;;;;;5045032;28;20262;-66
2021/05/31 01:48:58;;;;;;;10.43;9.57;;;11.40;99.90;;;;;;5033870;28;20258;-64
2021/05/31 01:51:24;;;;;;;11.67;10.50;;;11.30;99.90;;;;;;5040948;28;20183;-65
2021/05/31 01:53:51;;;;;;;11.20;10.30;;;11.30;99.90;;;;;;5053896;28;20454;-64
2021/05/31 01:56:18;;;;;;;12.10;10.10;;;11.30;99.90;;;;;;5052224;28;20234;-65
2021/05/31 01:58:44;;;;;;;11.07;10.13;;;11.20;99.90;;;;;;5053892;28;20614;-64
2021/05/31 02:01:11;;;;;;;10.73;9.93;;;11.20;99.90;;;;;;5041698;28;20203;-64
2021/05/31 02:03:37;;;;;;;11.70;10.70;;;11.20;99.90;;;;;;5033713;28;20207;-65
2021/05/31 02:06:04;;;;;;;10.90;10.00;;;11.20;99.90;;;;;;5043665;28;20266;-65
2021/05/31 02:08:29;;;;;;;12.60;11.40;;;11.20;99.90;;;;;;5053725;28;20585;-64
2021/05/31 02:11:01;;;;;;;12.40;11.23;;;11.20;99.90;;;;;;5044124;28;20183;-65
2021/05/31 02:13:29;;;;;;;10.57;9.83;;;11.10;99.90;;;;;;5033815;28;20291;-65
2021/05/31 02:16:03;;;;;;;11.20;10.07;;;11.20;99.90;;;;;;5034654;28;20219;-65
2021/05/31 02:18:31;;;;;;;11.57;10.63;;;11.20;99.90;;;;;;5033653;28;20245;-65
2021/05/31 02:21:09;;;;;;;10.97;10.00;;;11.10;99.90;;;;;;5040243;28;20183;-65
2021/05/31 02:23:36;;;;;;;10.90;9.80;;;11.10;99.90;;;;;;5051898;28;20241;-65
2021/05/31 02:26:02;;;;;;;11.27;10.50;;;11.00;99.90;;;;;;5045372;28;20188;-65
2021/05/31 02:28:29;;;;;;;11.07;10.17;;;11.00;99.90;;;;;;5033418;28;20175;-64
2021/05/31 02:30:55;;;;;;;11.40;10.50;;;11.00;99.90;;;;;;5038812;28;20198;-65
2021/05/31 02:33:25;;;;;;;11.80;10.80;;;11.00;99.90;;;;;;5053175;28;20209;-65
2021/05/31 02:35:51;;;;;;;11.80;10.80;;;10.90;99.90;;;;;;5049536;28;20205;-65
2021/05/31 02:38:18;;;;;;;11.57;10.47;;;10.90;99.90;;;;;;5053115;28;20167;-64
2021/05/31 02:40:43;;;;;;;10.73;9.93;;;10.70;99.90;;;;;;5048991;28;20241;-65
2021/05/31 02:43:09;;;;;;;11.77;10.80;;;10.70;99.90;;;;;;5032930;28;20219;-64
2021/05/31 02:45:36;;;;;;;12.33;11.23;;;10.70;99.90;;;;;;5033156;28;20258;-64
2021/05/31 02:48:04;;;;;;;11.90;11.00;;;10.70;99.90;;;;;;5052852;28;20187;-65
2021/05/31 02:50:31;;;;;;;12.73;10.87;;;10.70;99.90;;;;;;5051710;28;20177;-66
2021/05/31 02:52:58;;;;;;;11.83;10.87;;;10.70;99.90;;;;;;5032619;28;20207;-65
2021/05/31 02:55:26;;;;;;;13.17;12.10;;;10.70;99.90;;;;;;5032803;28;20207;-65
2021/05/31 02:57:52;;;;;;;12.33;11.33;;;10.70;99.90;;;;;;5052005;28;20183;-64
2021/05/31 03:00:22;;;;;;;13.10;11.93;;;10.60;99.90;;;;;;5052391;28;20273;-64
2021/05/31 03:02:48;;;;;;;12.17;11.17;;;10.60;99.90;;;;;;5034040;28;20183;-64
2021/05/31 03:05:19;;;;;;;12.53;11.47;;;10.60;99.90;;;;;;5031259;28;20187;-65
2021/05/31 03:07:46;;;;;;;13.43;12.23;;;10.40;99.90;;;;;;5049813;28;20194;-64
2021/05/31 03:10:12;;;;;;;13.37;12.27;;;10.40;99.90;;;;;;5052251;28;20281;-64
2021/05/31 03:12:39;;;;;;;13.90;12.70;;;10.30;99.90;;;;;;5036289;28;20180;-64
2021/05/31 03:15:07;;;;;;;12.93;11.73;;;10.20;99.90;;;;;;5032273;28;20199;-64
2021/05/31 03:17:32;;;;;;;12.83;11.67;;;10.20;99.90;;;;;;5046473;28;20174;-64
2021/05/31 03:19:58;;;;;;;13.83;12.80;;;10.20;99.90;;;;;;5051926;28;20284;-65
2021/05/31 03:22:24;;;;;;;12.37;11.33;;;10.20;99.90;;;;;;5038958;28;20270;-64
2021/05/31 03:24:49;;;;;;;13.30;12.10;;;10.30;99.90;;;;;;5032146;28;20290;-64
2021/05/31 03:27:15;;;;;;;13.27;12.17;;;10.40;99.90;;;;;;5042538;28;20186;-64
2021/05/31 03:29:41;;;;;;;13.33;12.00;;;10.30;99.90;;;;;;5043548;28;20180;-65
2021/05/31 03:32:07;;;;;;;12.83;11.10;;;10.40;99.90;;;;;;5032119;28;20199;-65
2021/05/31 03:34:32;;;;;;;13.13;11.83;;;10.40;99.90;;;;;;5033026;28;20337;-64
2021/05/31 03:36:58;;;;;;;13.70;12.50;;;10.50;99.90;;;;;;5031898;28;20254;-65
2021/05/31 03:39:24;;;;;;;13.90;12.70;;;10.50;99.90;;;;;;5039054;28;20189;-64
2021/05/31 03:41:49;;;;;;;13.07;11.97;;;10.50;99.90;;;;;;5051493;28;20202;-65
2021/05/31 03:44:15;;;;;;;14.50;13.30;;;10.50;99.90;;;;;;5045157;28;20700;-65
2021/05/31 03:46:40;;;;;;;13.50;12.20;;;10.60;99.90;;;;;;5031827;28;20179;-64
2021/05/31 03:49:06;;;;;;;13.37;12.27;;;10.60;99.90;;;;;;5035016;28;20182;-64
2021/05/31 03:51:32;;;;;;;14.30;12.67;;;10.60;99.90;;;;;;5051620;28;20175;-65
2021/05/31 03:53:58;;;;;;;12.57;11.47;;;10.60;99.90;;;;;;5049762;28;20186;-64
2021/05/31 03:56:23;;;;;;;11.90;10.90;;;10.40;99.90;;;;;;5031848;28;20203;-65
2021/05/31 03:58:51;;;;;;;11.83;10.80;;;10.50;99.90;;;;;;5031613;28;20171;-65
2021/05/31 04:01:17;;;;;;;13.30;12.10;;;10.30;99.90;;;;;;5050884;28;20542;-63
2021/05/31 04:03:43;;;;;;;12.87;11.77;;;10.30;99.90;;;;;;5051296;28;20217;-65
2021/05/31 04:11:49;;;;;;;12.67;11.50;;;10.40;99.90;;;;;;5051226;28;20720;-65
2021/05/31 04:14:17;;;;;;;12.43;11.23;;;10.50;99.90;;;;;;5050002;28;20269;-65
2021/05/31 04:16:45;;;;;;;12.40;11.23;;;10.60;99.90;;;;;;5031560;28;20183;-65
2021/05/31 04:19:12;;;;;;;12.70;11.60;;;10.80;99.90;;;;;;5046665;28;20198;-65
2021/05/31 04:21:40;;;;;;;11.17;10.30;;;10.90;99.90;;;;;;5050987;28;20179;-64
2021/05/31 04:24:06;;;;;;;11.60;10.70;;;11.20;99.90;;;;;;5051798;28;20623;-64
2021/05/31 04:26:33;;;;;;;11.37;10.57;;;11.40;99.90;;;;;;5032575;28;20199;-65
2021/05/31 04:29:00;;;;;;;12.57;11.60;;;11.70;99.90;;;;;;5031246;28;20171;-65
2021/05/31 04:31:25;;;;;;;25.37;18.27;;;12.00;99.90;;;;;;5047974;28;20245;-65
2021/05/31 04:33:51;;;;;;;14.10;12.60;;;12.40;99.90;;;;;;5052153;28;20202;-64
2021/05/31 04:36:18;;;;;;;11.33;10.47;;;12.80;99.90;;;;;;5039927;28;20214;-64
2021/05/31 04:38:44;;;;;;;11.50;10.57;;;13.20;99.90;;;;;;5035291;28;20703;-64
2021/05/31 04:41:09;;;;;;;10.60;9.80;;;13.60;99.90;;;;;;5048287;28;20191;-64
2021/05/31 04:43:35;;;;;;;11.37;10.37;;;13.90;99.90;;;;;;5055172;28;20698;-65
2021/05/31 04:46:03;;;;;;;12.30;11.30;;;14.20;99.90;;;;;;5042399;28;20688;-65
2021/05/31 04:48:32;;;;;;;12.27;11.07;;;14.60;99.90;;;;;;5035261;28;20187;-66
2021/05/31 04:50:58;;;;;;;14.77;13.00;;;15.00;99.90;;;;;;5044970;28;20671;-65
2021/05/31 04:53:29;;;;;;;17.80;12.80;;;15.40;99.90;;;;;;5054998;28;20207;-64
2021/05/31 04:55:55;;;;;;;13.60;12.33;;;15.80;99.90;;;;;;5045271;28;20226;-65
2021/05/31 04:58:21;;;;;;;12.87;11.60;;;16.20;99.90;;;;;;5035094;28;20176;-65
2021/05/31 05:00:47;;;;;;;14.37;11.10;;;16.50;99.90;;;;;;5042038;28;20703;-64
2021/05/31 05:03:13;;;;;;;12.20;11.13;;;16.80;99.90;;;;;;5054707;28;20273;-64
2021/05/31 05:05:39;;;;;;;13.40;12.10;;;17.10;99.90;;;;;;5048704;28;20353;-65
2021/05/31 05:08:05;;;;;;;12.37;11.30;;;17.40;99.90;;;;;;5034897;28;20179;-65
2021/05/31 05:10:31;;;;;;;9.53;8.60;;;17.60;99.90;;;;;;5038409;28;20591;-65
2021/05/31 05:12:56;;;;;;;10.73;9.83;;;18.00;99.90;;;;;;5054544;28;20183;-64
2021/05/31 05:15:26;;;;;;;10.00;9.07;;;18.00;99.90;;;;;;5052128;28;20215;-65
2021/05/31 05:17:52;;;;;;;10.47;9.67;;;17.90;99.90;;;;;;5034593;28;20182;-64
2021/05/31 05:20:21;;;;;;;9.50;8.80;;;17.80;99.90;;;;;;5035112;28;20180;-64
2021/05/31 05:22:47;;;;;;;11.27;9.57;;;18.00;99.90;;;;;;5054348;28;20179;-65
2021/05/31 05:25:14;;;;;;;10.50;9.33;;;18.20;99.90;;;;;;5054432;28;20590;-66
2021/05/31 05:27:42;;;;;;;12.57;11.32;;;18.40;99.90;;;;;;5053490;28;20175;-64
2021/05/31 05:30:09;;;;;;;10.83;10.00;;;18.50;99.90;;;;;;5054192;28;20178;-65
2021/05/31 05:32:36;;;;;;;10.93;9.97;;;18.90;99.90;;;;;;5035738;28;20191;-65
2021/05/31 05:35:15;;;;;;;11.07;10.30;;;19.30;99.90;;;;;;5047699;28;20253;-64
2021/05/31 05:37:55;;;;;;;11.23;10.30;;;19.70;99.90;;;;;;5054175;28;20171;-65
2021/05/31 05:43:10;;;;;;;10.10;9.30;;;20.30;99.90;;;;;;5034163;28;20233;-65
2021/05/31 05:48:28;;;;;;;10.73;9.68;;;20.50;99.90;;;;;;5014758;28;20191;-65
2021/05/31 05:51:04;;;;;;;10.15;9.13;;;20.60;99.90;;;;;;5052540;28;20252;-66
2021/05/31 05:53:32;;;;;;;8.98;8.32;;;20.70;99.90;;;;;;5014314;28;20246;-65
2021/05/31 05:55:58;;;;;;;8.88;8.18;;;20.90;99.90;;;;;;5051815;28;20256;-65
2021/05/31 05:58:27;;;;;;;9.77;8.68;;;21.30;99.90;;;;;;5053940;28;20171;-65
2021/05/31 06:00:53;;;;;;;9.23;8.32;;;21.50;99.90;;;;;;5035544;28;20230;-65
2021/05/31 06:03:19;;;;;;;8.57;7.68;;;21.70;99.90;;;;;;5032347;28;20199;-66
2021/05/31 06:05:44;;;;;;;8.80;7.88;;;22.00;99.90;;;;;;5044591;28;20186;-65
2021/05/31 06:08:10;;;;;;;13.65;9.02;;;22.10;99.90;;;;;;5033751;28;20175;-65
2021/05/31 06:10:35;;;;;;;8.88;8.18;;;22.20;99.90;;;;;;5033162;28;20190;-65
2021/05/31 06:13:01;;;;;;;9.07;8.18;;;22.40;99.90;;;;;;5033242;28;20195;-66
2021/05/31 06:15:27;;;;;;;10.38;9.50;;;22.40;99.90;;;;;;5033397;28;20213;-64
2021/05/31 06:17:52;;;;;;;9.70;8.82;;;22.30;99.90;;;;;;5033451;28;20195;-66
2021/05/31 06:20:18;;;;;;;10.18;9.48;;;22.30;99.90;;;;;;5048032;28;20240;-66
2021/05/31 06:22:44;;;;;;;12.77;8.60;;;22.30;99.90;;;;;;5052834;28;20563;-66
2021/05/31 06:25:11;;;;;;;13.10;9.45;;;22.50;99.90;;;;;;5038976;28;20189;-65
2021/05/31 06:27:38;;;;;;;9.18;8.57;;;22.80;99.90;;;;;;5033292;28;20207;-66
2021/05/31 06:30:05;;;;;;;9.20;8.30;;;22.80;99.90;;;;;;5034001;28;20234;-66
2021/05/31 06:32:31;;;;;;;10.05;7.97;;;22.80;99.90;;;;;;5033392;28;20167;-65
2021/05/31 06:34:57;;;;;;;10.02;9.13;;;23.00;99.90;;;;;;5043848;28;20248;-65
2021/05/31 06:37:22;;;;;;;8.60;7.78;;;23.10;99.90;;;;;;5053192;28;20544;-66
2021/05/31 06:39:49;;;;;;;9.93;9.02;;;23.10;99.90;;;;;;5049663;28;20183;-66
2021/05/31 06:42:15;;;;;;;10.23;9.43;;;23.50;99.90;;;;;;5053027;28;20220;-65
2021/05/31 06:44:40;;;;;;;9.68;8.85;;;23.90;99.90;;;;;;5043991;28;20199;-66
2021/05/31 06:47:08;;;;;;;10.38;9.32;;;24.10;99.90;;;;;;5032893;28;20184;-66
2021/05/31 06:49:38;;;;;;;9.35;8.65;;;24.30;99.90;;;;;;5038416;28;20175;-66
2021/05/31 06:52:05;;;;;;;9.70;8.52;;;24.40;99.90;;;;;;5052390;28;20316;-65
2021/05/31 06:54:33;;;;;;;9.30;8.48;;;24.60;99.90;;;;;;5047539;28;20199;-66
2021/05/31 06:56:59;;;;;;;9.85;8.95;;;24.30;99.90;;;;;;5030998;28;20183;-65
2021/05/31 06:59:25;;;;;;;11.18;9.48;;;23.90;99.90;;;;;;5035325;28;20633;-66
2021/05/31 07:01:51;;;;;;;10.50;9.57;;;23.60;99.90;;;;;;5052054;28;20254;-66
2021/05/31 07:04:18;;;;;;;14.55;10.23;;;23.90;99.90;;;;;;5050781;28;20197;-65
2021/05/31 07:06:44;;;;;;;10.43;9.52;;;24.00;99.90;;;;;;5032348;28;20249;-65
2021/05/31 07:09:10;;;;;;;10.40;8.57;;;24.40;99.90;;;;;;5032222;28;20195;-65
2021/05/31 07:11:37;;;;;;;11.60;10.50;;;24.70;99.90;;;;;;5051864;28;20177;-65
2021/05/31 07:14:04;;;;;;;10.30;9.30;;;25.00;99.90;;;;;;5052127;28;20205;-66
2021/05/31 07:16:32;;;;;;;13.27;11.27;;;24.80;99.90;;;;;;5033638;28;20205;-66
2021/05/31 07:18:58;;;;;;;10.23;9.25;;;24.80;99.90;;;;;;5032184;28;20178;-65
2021/05/31 07:21:24;;;;;;;9.85;9.00;;;24.90;99.90;;;;;;5048509;28;20175;-66
2021/05/31 07:23:49;;;;;;;10.40;8.93;;;25.30;99.90;;;;;;5051859;28;20206;-65
2021/05/31 07:26:15;;;;;;;11.70;10.80;;;25.50;99.90;;;;;;5036916;28;20183;-66
2021/05/31 07:28:41;;;;;;;12.00;10.88;;;25.80;99.90;;;;;;5032228;28;20181;-65
2021/05/31 07:31:06;;;;;;;10.45;9.50;;;26.10;99.90;;;;;;5044649;28;20175;-65
2021/05/31 07:33:32;;;;;;;10.90;10.05;;;26.50;99.90;;;;;;5046197;28;20191;-66
2021/05/31 07:36:01;;;;;;;11.18;10.27;;;26.60;99.90;;;;;;5031954;28;20691;-66
2021/05/31 07:38:27;;;;;;;11.38;10.38;;;26.90;99.90;;;;;;5035824;28;20175;-64
2021/05/31 07:40:52;;;;;;;13.02;11.75;;;27.30;99.90;;;;;;5051412;28;20190;-65
2021/05/31 07:43:18;;;;;;;12.13;11.15;;;27.60;99.90;;;;;;5048501;28;20197;-66
2021/05/31 07:45:45;;;;;;;11.32;10.25;;;27.60;99.90;;;;;;5030956;28;20172;-65
2021/05/31 07:48:10;;;;;;;10.18;9.10;;;27.40;99.90;;;;;;5032108;28;20172;-65
2021/05/31 07:50:36;;;;;;;13.82;10.65;;;27.40;99.90;;;;;;5042526;28;20353;-65
2021/05/31 07:53:01;;;;;;;12.52;11.43;;;27.30;99.90;;;;;;5047412;28;20211;-66
2021/05/31 07:55:27;;;;;;;14.07;10.45;;;27.30;99.90;;;;;;5050205;28;20198;-65
2021/05/31 07:57:53;;;;;;;14.95;13.85;;;27.20;99.90;;;;;;5051507;28;20236;-66
2021/05/31 08:00:20;;;;;;;12.32;11.00;;;27.20;99.90;;;;;;5049091;28;20210;-65
2021/05/31 08:02:48;;;;;;;11.52;10.45;;;26.90;99.90;;;;;;5051540;28;20186;-64
2021/05/31 08:05:15;;;;;;;12.02;11.10;;;27.10;99.90;;;;;;5051422;28;20252;-65
2021/05/31 08:07:44;;;;;;;11.93;10.93;;;27.00;99.90;;;;;;5051450;28;20170;-66
2021/05/31 08:10:11;;;;;;;11.10;9.90;;;26.50;99.90;;;;;;5050914;28;20257;-64
2021/05/31 08:12:37;;;;;;;12.18;9.80;;;26.40;99.90;;;;;;5051437;28;20174;-66
2021/05/31 08:15:08;;;;;;;12.43;11.18;;;26.10;99.90;;;;;;5051198;28;20719;-66
2021/05/31 08:17:34;;;;;;;14.07;9.18;;;26.00;99.90;;;;;;5051357;28;20181;-65
2021/05/31 08:19:59;;;;;;;13.30;12.23;;;26.40;99.90;;;;;;5050969;28;20170;-65
2021/05/31 08:22:25;;;;;;;10.95;9.95;;;26.70;99.90;;;;;;5051284;28;20205;-66
2021/05/31 08:24:51;;;;;;;9.73;8.35;;;27.40;99.90;;;;;;5051007;28;20202;-65
2021/05/31 08:27:17;;;;;;;8.40;7.60;;;28.00;99.90;;;;;;5051086;28;20208;-64
2021/05/31 08:29:42;;;;;;;10.07;8.73;;;28.20;99.90;;;;;;5050886;28;20174;-66
2021/05/31 08:32:08;;;;;;;11.30;8.48;;;27.80;99.90;;;;;;5051284;28;20175;-66
2021/05/31 08:34:34;;;;;;;10.50;9.50;;;27.70;99.90;;;;;;5051088;28;20566;-66
2021/05/31 08:36:59;;;;;;;8.90;7.75;;;28.10;99.90;;;;;;5051142;28;20171;-66
2021/05/31 08:39:25;;;;;;;7.68;6.97;;;28.60;99.90;;;;;;5051088;28;20175;-65
2021/05/31 08:41:51;;;;;;;12.27;11.10;;;28.80;99.90;;;;;;5050793;28;20297;-65
2021/05/31 08:44:17;;;;;;;11.60;9.25;;;28.90;99.90;;;;;;5050149;28;20677;-65
2021/05/31 08:46:43;;;;;;;9.45;8.55;;;29.30;99.90;;;;;;5051403;28;20688;-64
2021/05/31 08:49:10;;;;;;;9.55;7.53;;;29.20;99.90;;;;;;5050960;28;20175;-65
2021/05/31 08:51:37;;;;;;;8.27;7.55;;;29.60;99.90;;;;;;5050627;28;20225;-66
2021/05/31 08:54:04;;;;;;;9.45;8.73;;;30.00;99.90;;;;;;5050876;28;20218;-65
2021/05/31 08:56:31;;;;;;;8.13;7.43;;;30.30;98.60;;;;;;5050952;28;20229;-65
2021/05/31 08:58:57;;;;;;;7.00;6.45;;;30.20;95.70;;;;;;5050795;28;20212;-65
2021/05/31 09:01:24;;;;;;;10.77;10.07;;;30.10;93.50;;;;;;5049863;28;20178;-65
2021/05/31 09:03:52;;;;;;;10.75;9.85;;;29.80;94.50;;;;;;5050738;28;20183;-66
2021/05/31 09:06:18;;;;;;;7.65;7.03;;;30.20;93.50;;;;;;5050998;28;20175;-67
2021/05/31 09:08:52;;;;;;;6.95;6.38;;;30.30;95.60;;;;;;5050754;28;20205;-65
2021/05/31 09:11:20;;;;;;;7.38;6.75;;;30.80;92.70;;;;;;5050376;28;20224;-66
2021/05/31 09:13:46;;;;;;;8.45;7.75;;;31.30;92.10;;;;;;5050676;28;20198;-65
2021/05/31 09:16:20;;;;;;;7.47;6.80;;;30.70;91.70;;;;;;5050835;28;20222;-66
2021/05/31 09:18:58;;;;;;;7.25;6.55;;;31.10;94.70;;;;;;5050711;28;20178;-65
2021/05/31 09:21:29;;;;;;;8.20;7.45;;;31.20;90.30;;;;;;5052140;28;20178;-64
2021/05/31 09:24:07;;;;;;;8.52;6.78;;;31.20;88.10;;;;;;5054147;28;20209;-65
2021/05/31 09:26:50;;;;;;;8.20;7.50;;;31.20;86.00;;;;;;5053254;28;20657;-65
2021/05/31 09:29:17;;;;;;;8.68;7.75;;;31.40;90.40;;;;;;5048989;28;20540;-65
2021/05/31 09:31:43;;;;;;;8.43;7.72;;;31.10;86.80;;;;;;5037675;28;20175;-66
2021/05/31 09:34:11;;;;;;;9.10;8.40;;;30.30;88.50;;;;;;5034026;28;20566;-65
2021/05/31 09:36:50;;;;;;;7.95;7.40;;;30.10;88.20;;;;;;5033203;28;20195;-66
2021/05/31 09:39:16;;;;;;;6.90;6.30;;;30.20;89.30;;;;;;5034033;28;20641;-66
2021/05/31 09:41:42;;;;;;;8.73;7.20;;;30.50;92.50;;;;;;5033768;28;20168;-65
2021/05/31 09:44:09;;;;;;;8.27;7.57;;;31.00;86.70;;;;;;5034250;28;20237;-65
2021/05/31 09:46:45;;;;;;;10.40;9.40;;;31.50;90.00;;;;;;5034117;28;20174;-66
2021/05/31 09:49:17;;;;;;;9.60;7.53;;;32.00;87.80;;;;;;5034101;28;20179;-65
2021/05/31 09:52:15;;;;;;;8.27;7.47;;;32.00;88.40;;;;;;5040396;28;20233;-65
2021/05/31 09:54:45;;;;;;;10.02;9.27;;;32.10;84.10;;;;;;5036858;28;20210;-66
2021/05/31 09:57:27;;;;;;;9.10;8.20;;;32.20;84.50;;;;;;5052165;28;20217;-65
2021/05/31 09:59:59;;;;;;;9.35;8.15;;;31.60;84.90;;;;;;5053497;28;20171;-65
2021/05/31 10:02:36;;;;;;;9.77;8.15;;;31.10;88.60;;;;;;5047984;28;20653;-65
2021/05/31 10:05:29;;;;;;;9.98;9.15;;;31.50;87.70;;;;;;5033720;28;20202;-65
2021/05/31 10:10:22;;;;;;;9.13;8.32;;;31.60;88.80;;;;;;5053264;28;20585;-67
2021/05/31 10:12:48;;;;;;;10.30;9.30;;;31.60;90.10;;;;;;5045723;28;20194;-66
2021/05/31 10:15:19;;;;;;;10.32;9.27;;;30.70;86.30;;;;;;5033390;28;20213;-66
2021/05/31 10:17:46;;;;;;;9.38;8.70;;;30.80;86.00;;;;;;5033339;28;20180;-66
2021/05/31 10:20:12;;;;;;;9.52;8.68;;;30.80;86.50;;;;;;5033168;28;20254;-66
2021/05/31 10:22:39;;;;;;;11.32;10.25;;;30.90;85.30;;;;;;5033572;28;20179;-66
2021/05/31 10:27:35;;;;;;;11.02;9.90;;;30.20;90.20;;;;;;5071808;28;20267;-66
2021/05/31 10:30:02;;;;;;;12.43;11.43;;;30.80;89.70;;;;;;5073016;28;20174;-66
2021/05/31 10:32:28;;;;;;;10.77;9.90;;;31.10;84.90;;;;;;5072959;28;20170;-65
2021/05/31 10:34:54;;;;;;;10.10;9.07;;;31.20;87.50;;;;;;5072966;28;20202;-67
2021/05/31 10:37:26;;;;;;;11.35;10.30;;;31.60;89.50;;;;;;5072954;28;20261;-66
2021/05/31 10:40:04;;;;;;;11.20;10.25;;;32.00;85.90;;;;;;5072644;28;20173;-66
2021/05/31 10:42:44;;;;;;;11.40;9.90;;;32.10;83.00;;;;;;5072931;28;20174;-66
2021/05/31 10:45:22;;;;;;;9.95;8.88;;;31.80;83.60;;;;;;5072788;28;20289;-66
2021/05/31 10:48:16;;;;;;;9.02;7.75;;;32.30;85.20;;;;;;5072675;28;20239;-66
2021/05/31 10:50:59;;;;;;;9.65;8.85;;;33.10;83.60;;;;;;5072358;28;20174;-66
2021/05/31 10:53:33;;;;;;;8.80;7.90;;;33.60;83.00;;;;;;5072784;28;20194;-66
2021/05/31 10:56:02;;;;;;;9.68;8.60;;;33.20;81.10;;;;;;5072493;28;20262;-66
2021/05/31 10:58:33;;;;;;;9.40;7.38;;;33.60;81.50;;;;;;5072663;28;20182;-66
2021/05/31 11:01:08;;;;;;;8.77;7.88;;;33.90;77.80;;;;;;5071175;28;20237;-66
2021/05/31 11:04:02;;;;;;;8.43;7.53;;;34.30;75.70;;;;;;5072595;28;20193;-65
2021/05/31 11:06:33;;;;;;;8.82;8.02;;;33.80;78.60;;;;;;5072273;28;20666;-66
2021/05/31 11:09:14;;;;;;;9.43;8.63;;;34.00;81.90;;;;;;5071782;28;20542;-66
2021/05/31 11:11:49;;;;;;;8.50;7.78;;;33.00;79.60;;;;;;5071922;28;20178;-66
2021/05/31 11:14:18;;;;;;;9.55;8.63;;;32.70;79.60;;;;;;5070911;28;20225;-66
2021/05/31 11:16:55;;;;;;;10.90;9.98;;;32.80;82.00;;;;;;5072344;28;20261;-66
2021/05/31 11:19:36;;;;;;;10.60;9.65;;;33.00;78.70;;;;;;5071827;28;20647;-66
2021/05/31 11:22:20;;;;;;;9.05;7.90;;;33.70;79.60;;;;;;5071954;28;20484;-66
2021/05/31 11:24:53;;;;;;;9.30;8.50;;;34.20;74.90;;;;;;5071651;28;20206;-66
2021/05/31 11:27:29;;;;;;;7.60;6.80;;;34.30;77.50;;;;;;5071632;28;20256;-66
2021/05/31 11:29:55;;;;;;;7.45;6.75;;;34.80;78.70;;;;;;5071616;28;20554;-66
2021/05/31 11:32:21;;;;;;;10.07;7.63;;;34.40;72.70;;;;;;5072005;28;20171;-66
2021/05/31 11:35:05;;;;;;;9.52;8.55;;;33.30;75.70;;;;;;5071801;28;20742;-66
2021/05/31 11:37:34;;;;;;;10.32;9.45;;;32.00;73.30;;;;;;5071682;28;20197;-66
2021/05/31 11:40:03;;;;;;;8.40;7.57;;;30.80;73.20;;;;;;5071457;28;20534;-65
2021/05/31 11:42:28;;;;;;;9.48;8.18;;;29.70;75.00;;;;;;5071562;28;20270;-66
2021/05/31 11:44:58;;;;;;;10.90;10.00;;;28.60;76.90;;;;;;5071100;28;20288;-65
2021/05/31 11:47:29;;;;;;;10.07;8.60;;;28.40;76.10;;;;;;5071498;28;20174;-66
2021/05/31 11:49:55;;;;;;;8.70;7.90;;;28.50;79.30;;;;;;5071409;28;20162;-66
2021/05/31 11:52:26;;;;;;;11.18;9.82;;;28.50;76.20;;;;;;5071343;28;20174;-66
2021/05/31 11:54:52;;;;;;;9.45;8.65;;;28.60;80.20;;;;;;5071532;28;20636;-66
2021/05/31 11:57:20;;;;;;;8.57;7.82;;;29.20;79.70;;;;;;5071297;28;20647;-67
2021/05/31 11:59:48;;;;;;;12.07;8.70;;;30.80;78.70;;;;;;5071291;28;20178;-66
2021/05/31 12:02:15;;;;;;;10.40;9.63;;;32.50;77.50;;;;;;5071193;28;20188;-66
2021/05/31 12:04:46;;;;;;;6.95;6.32;;;33.80;72.10;;;;;;5071267;28;20201;-66
2021/05/31 12:07:14;;;;;;;9.65;8.77;;;33.00;69.20;;;;;;5071452;28;20174;-66
2021/05/31 12:09:42;;;;;;;9.63;8.73;;;32.80;78.30;;;;;;5070911;28;20216;-66
2021/05/31 12:12:13;;;;;;;9.50;8.80;;;32.20;75.70;;;;;;5071226;28;20174;-66
2021/05/31 12:14:52;;;;;;;9.82;9.10;;;32.50;73.70;;;;;;5071673;28;20194;-66
2021/05/31 12:17:20;;;;;;;9.50;7.47;;;32.40;72.30;;;;;;5071169;28;20190;-65
2021/05/31 12:19:47;;;;;;;17.65;16.40;;;31.20;70.20;;;;;;5070881;28;20582;-65
2021/05/31 12:22:14;;;;;;;8.50;7.70;;;30.50;71.40;;;;;;5071238;28;20634;-66
2021/05/31 12:24:44;;;;;;;8.55;7.78;;;29.80;71.10;;;;;;5071192;28;20189;-66
2021/05/31 12:27:10;;;;;;;6.93;6.32;;;29.00;72.60;;;;;;5071059;28;20186;-66
2021/05/31 12:29:48;;;;;;;7.88;7.05;;;28.50;74.90;;;;;;5071097;28;20177;-66
2021/05/31 12:32:19;;;;;;;8.73;7.65;;;28.50;79.30;;;;;;5071429;28;20260;-66
2021/05/31 12:34:45;;;;;;;8.93;8.13;;;28.90;73.70;;;;;;5071192;28;20182;-66
2021/05/31 12:37:13;;;;;;;11.32;10.35;;;29.40;76.80;;;;;;5070957;28;20231;-66
2021/05/31 12:39:47;;;;;;;8.07;7.43;;;29.80;76.80;;;;;;5070933;28;20224;-66
2021/05/31 12:42:18;;;;;;;8.40;7.53;;;30.90;76.70;;;;;;5070975;28;20182;-66
2021/05/31 12:44:44;;;;;;;11.93;8.73;;;31.40;72.20;;;;;;5070913;28;20178;-66
2021/05/31 12:47:13;;;;;;;10.23;9.25;;;31.80;73.80;;;;;;5070836;28;20690;-66
2021/05/31 12:49:53;;;;;;;8.77;8.02;;;33.00;74.80;;;;;;5070849;28;20170;-66
2021/05/31 12:52:30;;;;;;;8.55;7.90;;;33.30;70.70;;;;;;5070612;28;20181;-66
2021/05/31 12:55:02;;;;;;;9.00;8.30;;;33.20;71.30;;;;;;5070792;28;20196;-65
2021/05/31 12:57:36;;;;;;;10.38;9.35;;;33.00;70.70;;;;;;5074197;28;20239;-66
2021/05/31 13:00:05;;;;;;;9.20;6.88;;;32.80;70.40;;;;;;5074662;28;20252;-65